DAL236 KBOS-LLBG
Flight info
| Callsign | DAL236 |
|---|---|
| Flight time | N/A |
| Altitude | 37000 |
| Route | CELTK7 CELTK DCT FRILL DCT BRADD N427A ELSIR/M085F390 NATZ XETBO/N0478F390 DCT BANBA DCT KONAN/N0491F410 UL607 KOK DCT MATUG DCT BOMBI DCT TENLO DCT LAMSI DCT SASAL DCT BABIT DCT NISVA DCT RODIP UN131 KULAR UT39 TOMBI DCT IDAKU L35 PIKOG L609 ZUKKO |
| Aircraft | A359/H-SDE2E3GHIJ3J4J5LM1ORWXY/LB1D1 |
Departure
| Time | 2026-04-27 23:07 |
|---|---|
| Airport | Boston Logan International Airport (KBOS) |
Arrival
| Time | N/A |
|---|---|
| Airport | Ben Gurion International Airport (LLBG) |
| Time | Latitude | Longitude | Altitude | Speed | Heading |
|---|---|---|---|---|---|
| 2026-04-27 22:42 | 42.36645 | -71.01365 | 29 ft | 0 kts | 245° |
| 2026-04-27 22:54 | 42.36646 | -71.01365 | 29 ft | 0 kts | 245° |
| 2026-04-27 22:54 | 42.36653 | -71.01344 | 28 ft | 4 kts | 252° |
| 2026-04-27 22:55 | 42.36658 | -71.01309 | 31 ft | 4 kts | 271° |
| 2026-04-27 22:55 | 42.36653 | -71.01277 | 28 ft | 4 kts | 316° |
| 2026-04-27 22:55 | 42.36640 | -71.01268 | 29 ft | 0 kts | 15° |
| 2026-04-27 22:55 | 42.36639 | -71.01273 | 29 ft | 0 kts | 15° |
| 2026-04-27 22:58 | 42.36641 | -71.01272 | 29 ft | 4 kts | 15° |
| 2026-04-27 22:58 | 42.36677 | -71.01206 | 34 ft | 5 kts | 119° |
| 2026-04-27 22:58 | 42.36646 | -71.01194 | 34 ft | 7 kts | 179° |
| 2026-04-27 22:58 | 42.36567 | -71.01218 | 32 ft | 14 kts | 199° |
| 2026-04-27 22:59 | 42.36452 | -71.01276 | 30 ft | 22 kts | 200° |
| 2026-04-27 22:59 | 42.36307 | -71.01346 | 31 ft | 22 kts | 199° |
| 2026-04-27 22:59 | 42.36161 | -71.01414 | 34 ft | 21 kts | 199° |
| 2026-04-27 22:59 | 42.36023 | -71.01480 | 35 ft | 21 kts | 199° |
| 2026-04-27 23:00 | 42.35741 | -71.01615 | 35 ft | 22 kts | 202° |
| 2026-04-27 23:00 | 42.35598 | -71.01688 | 34 ft | 23 kts | 200° |
| 2026-04-27 23:00 | 42.35463 | -71.01699 | 30 ft | 19 kts | 138° |
| 2026-04-27 23:01 | 42.35386 | -71.01570 | 28 ft | 17 kts | 128° |
| 2026-04-27 23:01 | 42.35355 | -71.01515 | 30 ft | 0 kts | 125° |
| 2026-04-27 23:01 | 42.35355 | -71.01514 | 30 ft | 0 kts | 125° |
| 2026-04-27 23:01 | 42.35339 | -71.01480 | 30 ft | 19 kts | 122° |
| 2026-04-27 23:02 | 42.35306 | -71.01408 | 30 ft | 0 kts | 122° |
| 2026-04-27 23:05 | 42.35295 | -71.01386 | 30 ft | 12 kts | 126° |
| 2026-04-27 23:05 | 42.35223 | -71.01250 | 33 ft | 18 kts | 126° |
| 2026-04-27 23:06 | 42.35207 | -71.01133 | 35 ft | 5 kts | 24° |
| 2026-04-27 23:06 | 42.35223 | -71.01124 | 35 ft | 0 kts | 24° |
| 2026-04-27 23:06 | 42.35236 | -71.01117 | 35 ft | 10 kts | 22° |
| 2026-04-27 23:06 | 42.35505 | -71.00986 | 32 ft | 74 kts | 20° |
| 2026-04-27 23:07 | 42.36181 | -71.00660 | 31 ft | 130 kts | 20° |
| 2026-04-27 23:07 | 42.37182 | -71.00173 | 129 ft | 169 kts | 22° |
| 2026-04-27 23:07 | 42.38308 | -70.99620 | 662 ft | 170 kts | 22° |
| 2026-04-27 23:07 | 42.39430 | -70.99075 | 1299 ft | 173 kts | 21° |
| 2026-04-27 23:08 | 42.40581 | -70.98529 | 1918 ft | 178 kts | 21° |
| 2026-04-27 23:08 | 42.41756 | -70.97983 | 2587 ft | 180 kts | 20° |
| 2026-04-27 23:08 | 42.42962 | -70.97322 | 2948 ft | 196 kts | 27° |
| 2026-04-27 23:08 | 42.44027 | -70.96083 | 3057 ft | 217 kts | 58° |
| 2026-04-27 23:09 | 42.44575 | -70.94089 | 3339 ft | 236 kts | 74° |
| 2026-04-27 23:09 | 42.44966 | -70.91853 | 3764 ft | 249 kts | 76° |
| 2026-04-27 23:09 | 42.45352 | -70.89539 | 4360 ft | 253 kts | 75° |
| 2026-04-27 23:09 | 42.45735 | -70.87205 | 5060 ft | 255 kts | 78° |
| 2026-04-27 23:10 | 42.45759 | -70.84789 | 5742 ft | 261 kts | 97° |
| 2026-04-27 23:10 | 42.45150 | -70.82451 | 6466 ft | 266 kts | 111° |
| 2026-04-27 23:10 | 42.44322 | -70.80189 | 7156 ft | 270 kts | 112° |
| 2026-04-27 23:10 | 42.43458 | -70.77917 | 7847 ft | 273 kts | 112° |
| 2026-04-27 23:11 | 42.42590 | -70.75621 | 8567 ft | 275 kts | 112° |
| 2026-04-27 23:11 | 42.41723 | -70.73292 | 9302 ft | 278 kts | 112° |
| 2026-04-27 23:11 | 42.40857 | -70.70937 | 10040 ft | 281 kts | 112° |
| 2026-04-27 23:11 | 42.39992 | -70.68576 | 10616 ft | 289 kts | 112° |
| 2026-04-27 23:12 | 42.39077 | -70.66065 | 10924 ft | 306 kts | 112° |
| 2026-04-27 23:12 | 42.38108 | -70.63408 | 11206 ft | 324 kts | 112° |
| 2026-04-27 23:12 | 42.37205 | -70.60536 | 11485 ft | 339 kts | 105° |
| 2026-04-27 23:12 | 42.36505 | -70.57422 | 11766 ft | 354 kts | 102° |
| 2026-04-27 23:13 | 42.35830 | -70.54146 | 12092 ft | 367 kts | 102° |
| 2026-04-27 23:13 | 42.35140 | -70.50786 | 12631 ft | 373 kts | 102° |
| 2026-04-27 23:13 | 42.34435 | -70.47378 | 13224 ft | 378 kts | 102° |
| 2026-04-27 23:13 | 42.33716 | -70.43922 | 13824 ft | 383 kts | 102° |
| 2026-04-27 23:14 | 42.32999 | -70.40483 | 14386 ft | 388 kts | 103° |
| 2026-04-27 23:14 | 42.32251 | -70.36910 | 14943 ft | 391 kts | 103° |
| 2026-04-27 23:14 | 42.31516 | -70.33402 | 15491 ft | 395 kts | 103° |
| 2026-04-27 23:14 | 42.30763 | -70.29818 | 16039 ft | 398 kts | 103° |
| 2026-04-27 23:15 | 42.30001 | -70.26195 | 16593 ft | 402 kts | 102° |
| 2026-04-27 23:15 | 42.29232 | -70.22550 | 17152 ft | 405 kts | 102° |
| 2026-04-27 23:15 | 42.28456 | -70.18875 | 17728 ft | 409 kts | 102° |
| 2026-04-27 23:15 | 42.27673 | -70.15171 | 18291 ft | 412 kts | 102° |
| 2026-04-27 23:16 | 42.26891 | -70.11423 | 18820 ft | 415 kts | 101° |
| 2026-04-27 23:16 | 42.26239 | -70.07603 | 19291 ft | 418 kts | 98° |
| 2026-04-27 23:16 | 42.25690 | -70.03735 | 19804 ft | 421 kts | 97° |
| 2026-04-27 23:16 | 42.25192 | -69.99828 | 20312 ft | 424 kts | 96° |
| 2026-04-27 23:17 | 42.24713 | -69.95936 | 20837 ft | 427 kts | 96° |
| 2026-04-27 23:17 | 42.24223 | -69.91969 | 21336 ft | 431 kts | 96° |
| 2026-04-27 23:17 | 42.23828 | -69.87952 | 21834 ft | 432 kts | 90° |
| 2026-04-27 23:17 | 42.23811 | -69.83900 | 22341 ft | 433 kts | 83° |
| 2026-04-27 23:18 | 42.24268 | -69.79902 | 22793 ft | 433 kts | 73° |
| 2026-04-27 23:18 | 42.25215 | -69.76021 | 23285 ft | 434 kts | 66° |
| 2026-04-27 23:18 | 42.26375 | -69.72250 | 23781 ft | 437 kts | 63° |
| 2026-04-27 23:18 | 42.27641 | -69.68500 | 24209 ft | 440 kts | 62° |
| 2026-04-27 23:19 | 42.28955 | -69.64750 | 24609 ft | 443 kts | 62° |
| 2026-04-27 23:19 | 42.30286 | -69.60974 | 25017 ft | 446 kts | 62° |
| 2026-04-27 23:19 | 42.31622 | -69.57159 | 25424 ft | 450 kts | 62° |
| 2026-04-27 23:19 | 42.32951 | -69.53316 | 25828 ft | 453 kts | 62° |
| 2026-04-27 23:20 | 42.34266 | -69.49478 | 26176 ft | 458 kts | 63° |
| 2026-04-27 23:20 | 42.35604 | -69.45542 | 26521 ft | 462 kts | 63° |
| 2026-04-27 23:20 | 42.36945 | -69.41577 | 26948 ft | 465 kts | 63° |
| 2026-04-27 23:20 | 42.38293 | -69.37578 | 27332 ft | 468 kts | 63° |
| 2026-04-27 23:21 | 42.39646 | -69.33559 | 27718 ft | 471 kts | 63° |
| 2026-04-27 23:21 | 42.41006 | -69.29516 | 28105 ft | 474 kts | 63° |
| 2026-04-27 23:21 | 42.42376 | -69.25438 | 28457 ft | 477 kts | 63° |
| 2026-04-27 23:21 | 42.43752 | -69.21337 | 28819 ft | 480 kts | 63° |
| 2026-04-27 23:22 | 42.45137 | -69.17207 | 29163 ft | 483 kts | 63° |
| 2026-04-27 23:22 | 42.46531 | -69.13042 | 29465 ft | 487 kts | 63° |
| 2026-04-27 23:22 | 42.47932 | -69.08851 | 29798 ft | 490 kts | 63° |
| 2026-04-27 23:22 | 42.49338 | -69.04636 | 30105 ft | 492 kts | 63° |
| 2026-04-27 23:23 | 42.50754 | -69.00387 | 30410 ft | 495 kts | 63° |
| 2026-04-27 23:23 | 42.52176 | -68.96112 | 30721 ft | 496 kts | 63° |
| 2026-04-27 23:23 | 42.53589 | -68.91855 | 31107 ft | 495 kts | 63° |
| 2026-04-27 23:23 | 42.54997 | -68.87605 | 31495 ft | 494 kts | 63° |
| 2026-04-27 23:24 | 42.56388 | -68.83402 | 31844 ft | 493 kts | 63° |
| 2026-04-27 23:24 | 42.57788 | -68.79167 | 32174 ft | 492 kts | 63° |
| 2026-04-27 23:24 | 42.59192 | -68.74914 | 32496 ft | 492 kts | 64° |
| 2026-04-27 23:24 | 42.60588 | -68.70677 | 32809 ft | 492 kts | 64° |
| 2026-04-27 23:25 | 42.61985 | -68.66432 | 33115 ft | 492 kts | 64° |